Time;durP1;ratioP1;P1;durP2;ratioP2;P2;SDS_P1;SDS_P2;PMS_P1;PMS_P2;Temp;Humidity;BMP_temperature;BMP_pressure;BME280_temperature;BME280_humidity;BME280_pressure;Samples;Min_cycle;Max_cycle;Signal;HPM_P1;HPM_P2
2022/09/20 00:01:11;;;;;;;2.60;0.95;;;;;;;11.83;83.25;98279.00;5104516;28;20062;-70
2022/09/20 00:03:39;;;;;;;1.27;1.13;;;;;;;11.95;81.89;98285.38;5104832;28;20307;-69
2022/09/20 00:06:07;;;;;;;3.40;1.20;;;;;;;11.84;82.56;98278.09;5086576;28;20039;-70
2022/09/20 00:08:33;;;;;;;2.47;1.10;;;;;;;11.95;82.33;98298.34;5104429;28;20020;-69
2022/09/20 00:11:05;;;;;;;2.05;1.08;;;;;;;11.84;82.24;98279.84;5104954;28;20107;-71
2022/09/20 00:13:32;;;;;;;2.58;1.23;;;;;;;11.88;83.31;98295.16;5110592;28;20040;-68
2022/09/20 00:15:58;;;;;;;1.30;0.90;;;;;;;11.93;81.84;98305.34;5099707;28;20069;-71
2022/09/20 00:18:25;;;;;;;1.75;1.05;;;;;;;12.02;83.18;98317.03;5104719;28;20066;-71
2022/09/20 00:20:51;;;;;;;1.13;1.00;;;;;;;11.90;83.17;98306.31;5103919;28;20340;-69
2022/09/20 00:23:18;;;;;;;2.78;1.23;;;;;;;11.92;82.49;98309.66;5066471;28;20021;-70
2022/09/20 00:25:45;;;;;;;4.00;1.33;;;;;;;11.99;82.25;98317.19;5067716;28;20091;-70
2022/09/20 00:28:11;;;;;;;1.52;1.30;;;;;;;12.00;81.91;98308.47;5085953;28;20345;-72
2022/09/20 00:30:37;;;;;;;1.00;1.00;;;;;;;11.99;82.26;98315.44;5104403;28;20051;-71
2022/09/20 00:33:03;;;;;;;2.10;1.20;;;;;;;11.95;82.41;98313.06;5085692;28;20265;-70
2022/09/20 00:35:29;;;;;;;1.65;0.93;;;;;;;12.01;82.48;98321.38;5085853;28;20036;-70
2022/09/20 00:37:55;;;;;;;1.92;1.02;;;;;;;12.06;81.67;98331.56;5103687;28;20054;-71
2022/09/20 00:40:22;;;;;;;2.15;0.95;;;;;;;12.15;82.58;98340.63;5103830;28;20036;-72
2022/09/20 00:42:49;;;;;;;1.15;1.05;;;;;;;12.12;82.19;98340.78;5103810;28;20121;-71
2022/09/20 00:45:25;;;;;;;1.70;1.10;;;;;;;12.13;81.15;98334.66;5103691;28;20028;-72
2022/09/20 00:48:00;;;;;;;4.63;1.17;;;;;;;12.10;81.50;98346.06;5103179;28;20073;-72
2022/09/20 00:50:44;;;;;;;2.33;1.35;;;;;;;12.15;82.10;98366.59;5085568;28;20024;-74
2022/09/20 00:53:29;;;;;;;4.20;1.10;;;;;;;12.14;82.65;98370.94;5068881;28;20019;-72
2022/09/20 00:56:08;;;;;;;1.23;1.13;;;;;;;12.15;82.32;98366.59;5067996;28;20071;-72
2022/09/20 00:58:40;;;;;;;1.42;1.10;;;;;;;12.07;82.75;98374.72;5068743;28;20020;-73
2022/09/20 01:01:06;;;;;;;;;;;;;;;12.07;82.20;98365.22;5066070;28;20036;-71
2022/09/20 01:03:34;;;;;;;1.15;1.08;;;;;;;12.11;82.17;98381.44;5061780;28;20180;-74
2022/09/20 01:06:07;;;;;;;3.75;1.20;;;;;;;12.04;82.21;98377.47;5060293;28;20038;-72
2022/09/20 01:08:35;;;;;;;1.15;1.10;;;;;;;12.03;83.07;98370.63;5085361;28;20028;-71
2022/09/20 01:11:01;;;;;;;1.75;1.27;;;;;;;12.08;82.60;98374.69;5103204;28;20016;-71
2022/09/20 01:13:27;;;;;;;1.38;0.93;;;;;;;12.14;82.40;98383.91;5085639;28;20083;-70
2022/09/20 01:15:57;;;;;;;1.20;1.10;;;;;;;12.12;82.02;98395.28;5102354;28;20074;-70
2022/09/20 01:18:24;;;;;;;1.48;1.10;;;;;;;12.02;82.28;98384.50;5084914;28;20028;-69
2022/09/20 01:20:50;;;;;;;1.40;1.27;;;;;;;12.11;81.92;98389.25;5084720;28;20423;-70
2022/09/20 01:23:24;;;;;;;0.90;0.90;;;;;;;12.12;81.83;98400.47;5102973;28;20043;-69
2022/09/20 01:26:15;;;;;;;1.10;1.00;;;;;;;12.02;81.52;98389.69;5103081;28;20028;-70
2022/09/20 01:28:46;;;;;;;1.30;0.90;;;;;;;12.08;81.71;98394.59;5076611;28;20375;-69
2022/09/20 01:31:15;;;;;;;1.75;1.20;;;;;;;12.12;81.48;98401.31;5084980;28;20052;-71
2022/09/20 01:33:57;;;;;;;1.40;1.30;;;;;;;12.12;81.75;98411.69;5092952;28;20028;-69
2022/09/20 01:36:24;;;;;;;;;;;;;;;12.08;81.95;98420.53;5103602;28;20027;-68
2022/09/20 01:39:15;;;;;;;2.60;1.00;;;;;;;12.13;81.05;98423.75;5067917;28;19938;-69
2022/09/20 01:41:49;;;;;;;1.45;1.10;;;;;;;12.10;81.51;98408.34;5084618;28;20051;-70
2022/09/20 01:44:42;;;;;;;3.65;1.10;;;;;;;12.08;81.89;98428.31;5085095;28;20032;-70
2022/09/20 01:47:20;;;;;;;3.25;1.45;;;;;;;12.09;81.13;98414.44;5103194;28;20317;-70
2022/09/20 01:50:59;;;;;;;1.20;1.10;;;;;;;12.05;81.60;98431.06;5103278;28;20031;-70
2022/09/20 01:54:00;;;;;;;1.13;1.00;;;;;;;12.11;80.92;98435.94;4965936;28;20035;-72
2022/09/20 01:57:06;;;;;;;2.30;1.70;;;;;;;12.15;81.49;98432.28;5021368;28;20049;-69
2022/09/20 01:59:46;;;;;;;5.72;2.80;;;;;;;12.13;82.59;98443.66;5077830;28;20034;-69
2022/09/20 02:02:33;;;;;;;5.28;1.60;;;;;;;12.16;82.44;98438.34;5107173;28;20159;-71
2022/09/20 02:05:16;;;;;;;4.60;2.67;;;;;;;12.12;82.46;98442.84;5092810;28;20304;-72
2022/09/20 02:08:15;;;;;;;4.85;2.33;;;;;;;12.14;82.14;98446.22;5106703;28;20082;-71
2022/09/20 02:10:53;;;;;;;2.60;1.70;;;;;;;12.15;82.34;98447.88;5075316;28;20036;-73
2022/09/20 02:13:21;;;;;;;4.30;1.27;;;;;;;12.14;82.34;98450.53;5106824;28;20214;-72
2022/09/20 02:16:05;;;;;;;2.80;2.08;;;;;;;12.24;82.24;98462.16;5072324;28;20220;-71
2022/09/20 02:18:49;;;;;;;3.92;1.95;;;;;;;12.29;81.98;98465.38;5109878;28;20093;-71
2022/09/20 02:21:27;;;;;;;2.65;1.10;;;;;;;12.29;81.21;98475.75;5115954;28;20193;-70
2022/09/20 02:24:25;;;;;;;1.05;1.05;;;;;;;12.12;81.84;98449.78;5106360;28;20083;-71
2022/09/20 02:27:29;;;;;;;1.30;1.20;;;;;;;12.23;81.71;98481.25;5099003;28;20060;-70
2022/09/20 02:30:13;;;;;;;1.45;1.23;;;;;;;12.26;81.89;98487.13;5058950;28;20028;-70
2022/09/20 02:32:50;;;;;;;1.20;1.10;;;;;;;12.08;81.63;98475.03;5106271;28;20054;-70
2022/09/20 02:35:41;;;;;;;1.80;1.40;;;;;;;12.15;82.77;98499.78;5106254;28;20331;-69
2022/09/20 02:38:34;;;;;;;1.45;1.30;;;;;;;12.03;81.94;98495.19;5088235;28;20061;-69
2022/09/20 02:41:35;;;;;;;2.45;1.30;;;;;;;12.11;82.34;98503.44;5088500;28;20317;-69
2022/09/20 02:44:25;;;;;;;1.75;1.25;;;;;;;12.04;82.33;98508.09;5053501;28;20040;-68
2022/09/20 02:47:12;;;;;;;2.25;1.20;;;;;;;12.10;82.40;98517.34;5106317;28;20040;-71
2022/09/20 02:50:02;;;;;;;2.10;1.20;;;;;;;12.07;82.04;98510.53;5088054;28;20047;-70
2022/09/20 02:52:48;;;;;;;1.15;1.00;;;;;;;12.16;82.04;98527.41;5086256;28;20016;-69
2022/09/20 02:55:31;;;;;;;1.75;1.10;;;;;;;11.80;82.00;98489.28;5067700;28;20035;-70
2022/09/20 02:58:06;;;;;;;1.65;1.27;;;;;;;12.17;81.26;98529.13;5067544;28;20035;-70
2022/09/20 03:00:45;;;;;;;1.58;1.10;;;;;;;12.22;81.63;98552.25;5082506;28;20029;-70
2022/09/20 03:03:21;;;;;;;2.22;1.27;;;;;;;12.15;81.91;98546.50;5101348;28;20016;-70
2022/09/20 03:06:07;;;;;;;1.95;1.27;;;;;;;12.27;81.75;98558.09;5067779;28;20020;-71
2022/09/20 03:09:07;;;;;;;1.15;1.05;;;;;;;12.18;81.79;98551.53;5077806;28;20055;-70
2022/09/20 03:11:38;;;;;;;2.63;1.42;;;;;;;12.14;81.51;98567.34;5105760;28;20046;-71
2022/09/20 03:14:21;;;;;;;1.35;1.20;;;;;;;12.17;81.24;98574.97;5087683;28;20040;-71
2022/09/20 03:16:57;;;;;;;3.30;1.20;;;;;;;12.18;81.63;98574.91;5104966;28;20043;-71
2022/09/20 03:19:58;;;;;;;2.13;1.30;;;;;;;12.26;80.81;98579.75;5070717;28;20264;-70
2022/09/20 03:22:58;;;;;;;1.95;1.40;;;;;;;12.09;81.14;98580.53;5049159;28;20062;-70
2022/09/20 03:25:34;;;;;;;3.83;1.33;;;;;;;12.16;81.07;98588.88;5105328;28;20030;-70
2022/09/20 03:28:18;;;;;;;2.50;1.25;;;;;;;12.12;81.57;98598.56;5087445;28;20043;-70
2022/09/20 03:30:58;;;;;;;1.58;1.23;;;;;;;12.19;81.24;98602.53;5104835;28;20071;-72
2022/09/20 03:34:02;;;;;;;1.88;1.20;;;;;;;12.13;81.10;98612.34;5087267;28;20024;-72
2022/09/20 03:37:06;;;;;;;1.13;1.02;;;;;;;12.18;80.64;98619.03;5086645;28;20020;-72
2022/09/20 03:40:09;;;;;;;1.63;1.10;;;;;;;12.19;81.15;98627.69;5031236;28;20266;-71
2022/09/20 03:42:45;;;;;;;2.72;1.15;;;;;;;12.14;81.10;98621.84;5098105;28;20070;-72
2022/09/20 03:45:34;;;;;;;1.55;1.10;;;;;;;12.10;81.10;98615.97;5104755;28;20023;-71
2022/09/20 03:48:21;;;;;;;1.38;1.17;;;;;;;12.22;81.74;98636.16;5087124;28;20026;-72
2022/09/20 03:50:54;;;;;;;1.83;1.27;;;;;;;12.14;81.67;98633.09;5111896;28;20089;-69
2022/09/20 03:53:45;;;;;;;1.27;1.10;;;;;;;12.19;81.79;98645.84;5086867;28;20028;-70
2022/09/20 03:56:10;;;;;;;1.73;1.30;;;;;;;12.10;81.06;98647.09;5104901;28;20024;-71
2022/09/20 03:58:48;;;;;;;1.77;1.30;;;;;;;12.23;80.84;98647.41;5089061;28;20363;-70
2022/09/20 04:01:51;;;;;;;1.10;1.10;;;;;;;12.28;80.82;98650.59;5102213;28;20342;-68
2022/09/20 04:04:31;;;;;;;2.88;1.50;;;;;;;12.22;81.04;98662.09;5069241;28;20024;-68
2022/09/20 04:07:13;;;;;;;3.85;1.33;;;;;;;12.25;81.05;98659.38;5086504;28;20065;-68
2022/09/20 04:10:04;;;;;;;1.35;1.20;;;;;;;12.02;81.98;98664.75;5103390;28;20024;-69
2022/09/20 04:13:00;;;;;;;1.50;1.40;;;;;;;12.12;82.70;98667.78;5103916;28;20032;-70
2022/09/20 04:15:32;;;;;;;1.70;1.30;;;;;;;12.14;81.50;98678.94;5104193;28;20038;-67
2022/09/20 04:18:06;;;;;;;1.80;1.33;;;;;;;12.18;81.62;98685.69;5104042;28;20055;-67
2022/09/20 04:21:13;;;;;;;2.90;1.63;;;;;;;12.19;82.02;98692.56;5103635;28;20036;-67
2022/09/20 04:24:16;;;;;;;1.95;1.23;;;;;;;12.26;82.02;98689.63;5075674;28;20040;-66
2022/09/20 04:26:49;;;;;;;1.77;1.35;;;;;;;12.21;81.50;98703.72;5103404;28;20027;-68
2022/09/20 04:29:44;;;;;;;2.95;1.45;;;;;;;12.21;81.62;98706.31;5100390;28;20052;-70
2022/09/20 04:32:35;;;;;;;2.15;1.27;;;;;;;12.21;82.03;98716.69;5084096;28;20319;-70
2022/09/20 04:37:55;;;;;;;3.92;1.70;;;;;;;12.16;82.22;98719.50;5103659;28;20228;-68
2022/09/20 04:40:29;;;;;;;4.68;1.50;;;;;;;12.24;81.99;98719.16;5124135;28;20371;-69
2022/09/20 04:43:34;;;;;;;3.00;1.50;;;;;;;12.25;81.92;98733.81;5089144;28;20093;-70
2022/09/20 04:46:18;;;;;;;2.78;1.38;;;;;;;12.32;81.91;98730.03;5103112;28;20036;-69
2022/09/20 04:48:55;;;;;;;2.58;1.50;;;;;;;12.31;81.56;98740.50;5104935;28;20037;-69
2022/09/20 04:51:36;;;;;;;2.22;1.60;;;;;;;12.34;81.29;98748.16;5089080;28;20070;-70
2022/09/20 04:57:10;;;;;;;1.27;1.17;;;;;;;12.42;81.30;98749.50;5103354;28;20047;-70
2022/09/20 04:59:54;;;;;;;3.45;1.52;;;;;;;12.35;81.89;98752.44;5103412;28;20023;-69
2022/09/20 05:03:05;;;;;;;3.00;1.52;;;;;;;12.36;81.82;98756.72;5103408;28;20028;-69
2022/09/20 05:06:08;;;;;;;2.10;1.50;;;;;;;12.40;81.50;98769.50;5067931;28;20257;-70
2022/09/20 05:08:55;;;;;;;2.20;1.90;;;;;;;12.37;82.72;98768.78;5103236;28;20028;-70
2022/09/20 05:11:30;;;;;;;1.77;1.60;;;;;;;12.37;81.89;98768.78;5085751;28;20020;-70
2022/09/20 05:14:25;;;;;;;1.75;1.63;;;;;;;12.36;81.78;98774.91;5103856;28;20122;-70
2022/09/20 05:17:06;;;;;;;2.00;1.90;;;;;;;12.43;82.35;98784.94;5105682;28;20103;-69
2022/09/20 05:19:43;;;;;;;1.58;1.48;;;;;;;12.39;81.28;98780.78;5085614;28;20028;-68
2022/09/20 05:22:43;;;;;;;3.03;1.83;;;;;;;12.43;80.88;98779.75;5103397;28;20043;-70
2022/09/20 05:25:26;;;;;;;2.00;1.67;;;;;;;12.51;81.33;98776.84;5085337;28;20023;-71
2022/09/20 05:28:00;;;;;;;2.22;1.50;;;;;;;12.47;81.00;98790.00;5084357;28;20079;-70
2022/09/20 05:30:54;;;;;;;2.45;1.60;;;;;;;12.55;80.70;98793.94;5103222;28;20020;-69
2022/09/20 05:33:47;;;;;;;2.35;1.55;;;;;;;12.46;80.77;98775.34;5105896;28;20035;-70
2022/09/20 05:36:31;;;;;;;2.25;1.60;;;;;;;12.64;80.71;98789.25;5072343;28;20024;-70
2022/09/20 05:39:12;;;;;;;3.83;1.70;;;;;;;12.69;80.26;98792.50;5072412;28;20032;-69
2022/09/20 05:42:06;;;;;;;2.00;1.80;;;;;;;12.79;80.13;98822.34;5069154;28;20016;-71
2022/09/20 05:44:50;;;;;;;1.77;1.67;;;;;;;12.79;79.98;98809.38;5077614;28;20058;-70
2022/09/20 05:47:21;;;;;;;2.53;1.70;;;;;;;12.75;79.68;98818.19;5107107;28;20031;-69
2022/09/20 05:50:16;;;;;;;3.50;1.70;;;;;;;12.47;79.00;98790.00;5088623;28;20251;-71
2022/09/20 05:52:54;;;;;;;5.72;2.00;;;;;;;12.72;79.10;98823.53;5089065;28;20044;-69
2022/09/20 05:55:41;;;;;;;2.55;1.85;;;;;;;12.66;80.07;98821.22;5107011;28;20028;-69
2022/09/20 05:58:25;;;;;;;2.75;1.67;;;;;;;12.62;79.66;98828.28;5086124;28;20024;-70
2022/09/20 06:01:01;;;;;;;1.98;1.73;;;;;;;12.67;79.14;98817.69;5087637;28;20039;-71
2022/09/20 06:03:44;;;;;;;3.92;1.90;;;;;;;12.70;79.53;98834.00;5088352;28;20328;-69
2022/09/20 06:06:31;;;;;;;2.67;1.40;;;;;;;12.80;79.64;98836.19;5088625;28;20045;-69
2022/09/20 06:09:26;;;;;;;1.85;1.75;;;;;;;12.78;79.11;98836.25;5106598;28;20016;-69
2022/09/20 06:12:00;;;;;;;2.00;1.50;;;;;;;12.83;79.63;98839.50;5088105;28;20020;-69
2022/09/20 06:15:02;;;;;;;2.92;1.70;;;;;;;12.87;79.48;98856.66;5088954;28;20076;-71
2022/09/20 06:17:58;;;;;;;2.20;1.73;;;;;;;12.72;78.73;98854.72;5071701;28;20089;-71
2022/09/20 06:20:30;;;;;;;3.63;1.70;;;;;;;12.66;79.56;98853.22;5106433;28;20028;-71
2022/09/20 06:23:00;;;;;;;2.20;1.60;;;;;;;12.63;79.01;98839.50;5106559;28;20036;-71
2022/09/20 06:25:31;;;;;;;2.90;1.70;;;;;;;12.84;79.34;98867.19;5088327;28;20020;-70
2022/09/20 06:28:18;;;;;;;4.15;1.65;;;;;;;12.87;77.68;98869.63;5106132;28;20051;-70
2022/09/20 06:30:47;;;;;;;3.55;1.60;;;;;;;12.95;78.27;98858.88;5088211;28;20027;-66
2022/09/20 06:33:15;;;;;;;2.05;1.73;;;;;;;12.93;77.47;98869.34;5106256;28;20044;-66
2022/09/20 06:35:46;;;;;;;2.72;1.80;;;;;;;13.01;77.66;98870.78;5106591;28;20088;-66
2022/09/20 06:41:27;;;;;;;4.18;1.50;;;;;;;12.93;78.57;98874.56;5087856;28;20177;-65
2022/09/20 06:44:04;;;;;;;;;;;;;;;13.06;77.57;98884.41;5106306;28;20035;-65
2022/09/20 06:46:35;;;;;;;2.03;1.55;;;;;;;13.10;77.71;98892.00;5088307;28;19908;-66
2022/09/20 06:49:02;;;;;;;2.45;1.52;;;;;;;13.03;77.56;98897.56;5085589;28;20028;-66
2022/09/20 06:51:34;;;;;;;4.03;1.73;;;;;;;13.16;76.72;98898.69;5083535;28;20200;-66
2022/09/20 06:53:59;;;;;;;;;;;;;;;13.32;77.45;98900.59;5106259;28;20053;-66
2022/09/20 06:56:28;;;;;;;3.10;1.40;;;;;;;13.36;77.07;98904.78;5105856;28;19951;-66
2022/09/20 06:58:54;;;;;;;1.40;1.30;;;;;;;13.41;76.84;98903.66;5087402;28;20336;-66
2022/09/20 07:01:20;;;;;;;2.80;1.58;;;;;;;13.39;76.59;98899.44;5104730;28;20068;-67
2022/09/20 07:03:46;;;;;;;2.92;1.50;;;;;;;13.60;75.09;98908.84;5105661;28;20369;-67
2022/09/20 07:06:16;;;;;;;2.95;1.27;;;;;;;13.71;75.44;98910.97;5105354;28;20027;-66
2022/09/20 07:08:42;;;;;;;3.72;1.40;;;;;;;13.76;74.83;98914.16;5105675;28;20035;-66
2022/09/20 07:11:16;;;;;;;3.50;1.60;;;;;;;13.86;74.38;98911.97;5087842;28;20050;-66
2022/09/20 07:13:43;;;;;;;4.80;1.45;;;;;;;13.83;73.67;98914.72;5105339;28;20030;-65
2022/09/20 07:16:12;;;;;;;4.85;1.70;;;;;;;13.87;74.42;98900.66;5087374;28;20119;-66
2022/09/20 07:18:39;;;;;;;3.20;1.73;;;;;;;13.95;73.61;98916.75;5105382;28;20189;-65
2022/09/20 07:21:05;;;;;;;2.47;1.45;;;;;;;13.95;73.48;98918.50;5104999;28;20042;-65
2022/09/20 07:23:30;;;;;;;4.30;1.45;;;;;;;13.92;72.73;98916.91;5105488;28;20035;-66
2022/09/20 07:26:00;;;;;;;3.28;1.55;;;;;;;13.87;72.14;98923.25;5087044;28;20020;-66
2022/09/20 07:28:31;;;;;;;2.63;1.40;;;;;;;13.91;72.45;98930.84;5087488;28;20045;-65
2022/09/20 07:30:57;;;;;;;;;;;;;;;13.80;72.34;98930.50;5105494;28;20024;-64
2022/09/20 07:33:23;;;;;;;2.60;1.30;;;;;;;13.71;71.92;98941.31;5105009;28;20354;-65
2022/09/20 07:35:53;;;;;;;2.58;1.45;;;;;;;13.52;72.68;98938.72;5087055;28;20024;-66
2022/09/20 07:38:20;;;;;;;3.78;1.60;;;;;;;13.54;72.97;98940.34;5105091;28;20028;-66
2022/09/20 07:40:56;;;;;;;1.85;1.40;;;;;;;13.58;72.77;98943.66;5086587;28;20194;-66
2022/09/20 07:43:23;;;;;;;2.50;1.48;;;;;;;13.68;73.05;98957.94;5105117;28;20095;-66
2022/09/20 07:45:53;;;;;;;3.55;1.80;;;;;;;13.71;73.34;98951.72;5086775;28;20338;-66
2022/09/20 07:48:19;;;;;;;4.95;1.60;;;;;;;13.68;72.80;98952.75;5086683;28;20062;-66
2022/09/20 07:50:53;;;;;;;2.58;1.55;;;;;;;13.66;71.72;98962.34;5104862;28;20050;-67
2022/09/20 07:53:18;;;;;;;2.25;1.63;;;;;;;13.77;72.36;98959.28;5104735;28;20023;-66
2022/09/20 07:55:59;;;;;;;1.92;1.58;;;;;;;13.73;73.03;98962.94;5085485;28;20035;-66
2022/09/20 07:58:25;;;;;;;1.73;1.40;;;;;;;13.78;73.16;98959.19;5104564;28;20030;-66
2022/09/20 08:00:55;;;;;;;2.30;1.40;;;;;;;13.81;71.96;98950.41;5086460;28;20023;-66
2022/09/20 08:03:21;;;;;;;2.65;1.77;;;;;;;13.94;71.95;98958.50;5104692;28;20032;-66
2022/09/20 08:05:49;;;;;;;2.65;1.60;;;;;;;13.98;71.98;98960.88;5103905;28;20089;-66
2022/09/20 08:08:16;;;;;;;2.80;1.42;;;;;;;14.03;71.93;98971.06;5103941;28;20039;-66
2022/09/20 08:10:45;;;;;;;3.85;1.35;;;;;;;14.03;71.93;98968.44;5103744;28;20244;-67
2022/09/20 08:13:15;;;;;;;2.13;1.20;;;;;;;14.06;71.15;98968.31;5103986;28;20023;-66
2022/09/20 08:15:41;;;;;;;1.30;1.20;;;;;;;14.03;71.71;98975.44;5104113;28;20135;-66
2022/09/20 08:18:07;;;;;;;2.33;1.67;;;;;;;14.09;70.90;98980.34;5085543;28;20024;-66
2022/09/20 08:20:37;;;;;;;2.95;1.60;;;;;;;14.07;70.12;98983.00;5104529;28;20028;-66
2022/09/20 08:23:04;;;;;;;1.38;1.27;;;;;;;14.18;70.53;98979.06;5085888;28;20207;-66
2022/09/20 08:25:30;;;;;;;1.60;1.20;;;;;;;14.23;70.38;98970.09;5104354;28;20024;-67
2022/09/20 08:27:56;;;;;;;3.80;1.70;;;;;;;14.61;70.48;98980.41;5104068;28;20031;-67
2022/09/20 08:30:22;;;;;;;3.83;2.10;;;;;;;14.94;69.98;98979.69;5099726;28;20566;-65
2022/09/20 08:32:48;;;;;;;6.38;1.30;;;;;;;15.34;68.05;98982.81;5084058;28;20066;-66
2022/09/20 08:35:14;;;;;;;4.40;1.73;;;;;;;15.65;65.97;98985.59;5088398;28;20087;-66
2022/09/20 08:37:42;;;;;;;2.50;1.42;;;;;;;15.70;65.07;98994.00;5103836;28;20057;-66
2022/09/20 08:40:17;;;;;;;2.45;1.42;;;;;;;15.35;65.75;98988.91;5100069;28;20043;-66
2022/09/20 08:42:43;;;;;;;1.67;1.30;;;;;;;15.31;66.58;98998.66;5085484;28;20058;-66
2022/09/20 08:45:21;;;;;;;1.63;1.42;;;;;;;15.74;66.40;98981.63;5103804;28;20059;-66
2022/09/20 08:47:52;;;;;;;1.42;1.30;;;;;;;16.08;66.16;98983.28;5102210;28;20032;-65
2022/09/20 08:50:18;;;;;;;3.55;1.50;;;;;;;16.01;63.50;98995.81;5100765;28;20061;-66
2022/09/20 08:52:51;;;;;;;3.20;1.45;;;;;;;16.24;64.10;99001.53;5103483;28;20020;-66
2022/09/20 08:55:20;;;;;;;2.13;1.90;;;;;;;15.94;64.49;99010.13;5085046;28;20020;-66
2022/09/20 08:57:52;;;;;;;1.83;1.33;;;;;;;15.65;64.69;99009.09;5102981;28;20052;-66
2022/09/20 09:00:32;;;;;;;1.85;1.40;;;;;;;15.56;66.02;98999.94;5102277;28;20213;-66
2022/09/20 09:03:05;;;;;;;3.05;1.60;;;;;;;15.52;66.29;99001.91;5101227;28;20036;-66
2022/09/20 09:05:36;;;;;;;2.60;1.40;;;;;;;15.50;65.35;99008.13;5103559;28;20312;-66
2022/09/20 09:08:14;;;;;;;4.27;1.50;;;;;;;15.68;65.33;98996.69;5085112;28;20023;-66
2022/09/20 09:10:41;;;;;;;4.20;1.60;;;;;;;15.62;64.64;99002.25;5085413;28;20200;-66
2022/09/20 09:13:13;;;;;;;3.88;1.67;;;;;;;15.53;64.25;99007.94;5103376;28;20023;-68
2022/09/20 09:15:40;;;;;;;;;;;;;;;15.36;62.46;99006.22;5103803;28;20051;-67
2022/09/20 09:18:10;;;;;;;2.13;1.27;;;;;;;15.36;63.75;99003.63;5102980;28;19916;-67
2022/09/20 09:20:42;;;;;;;2.08;1.50;;;;;;;15.38;64.85;99012.22;5103276;28;20032;-66
2022/09/20 09:23:18;;;;;;;2.28;1.17;;;;;;;15.47;65.64;99018.72;5103633;28;20178;-66
2022/09/20 09:25:44;;;;;;;2.63;1.50;;;;;;;15.38;66.06;99022.66;5102984;28;20034;-66
2022/09/20 09:28:09;;;;;;;1.88;1.67;;;;;;;15.30;66.38;99036.09;5103374;28;20043;-67
2022/09/20 09:30:39;;;;;;;4.00;1.48;;;;;;;15.18;66.19;99027.13;5102317;28;20028;-67
2022/09/20 09:33:30;;;;;;;1.65;1.30;;;;;;;15.31;66.16;99029.94;5102004;28;20032;-67
2022/09/20 09:36:13;;;;;;;2.50;1.30;;;;;;;15.22;65.46;99030.44;5102489;28;20327;-65
2022/09/20 09:38:45;;;;;;;4.35;1.50;;;;;;;15.28;65.44;99032.72;5103340;28;20073;-66
2022/09/20 09:41:34;;;;;;;3.45;1.35;;;;;;;15.27;65.54;99035.41;5102819;28;20083;-66
2022/09/20 09:44:27;;;;;;;2.47;1.48;;;;;;;15.14;66.03;99043.03;5084952;28;20031;-66
2022/09/20 09:46:56;;;;;;;2.50;1.40;;;;;;;15.04;66.25;99032.22;5099147;28;20209;-66
2022/09/20 09:49:29;;;;;;;3.03;1.60;;;;;;;15.17;66.31;99051.53;5103144;28;20028;-66
2022/09/20 09:51:54;;;;;;;1.60;1.33;;;;;;;15.08;66.43;99048.53;5103131;28;20032;-66
2022/09/20 09:54:24;;;;;;;3.30;1.40;;;;;;;15.19;65.93;99054.03;5102760;28;20050;-66
2022/09/20 09:57:20;;;;;;;1.70;1.40;;;;;;;15.21;66.50;99054.84;5103082;28;20020;-67
2022/09/20 10:00:12;;;;;;;1.50;1.40;;;;;;;15.34;65.82;99052.44;5102917;28;20095;-66
2022/09/20 10:03:17;;;;;;;4.55;1.75;;;;;;;15.34;65.92;99058.50;5102937;28;20028;-66
2022/09/20 10:06:20;;;;;;;3.50;1.60;;;;;;;15.29;66.39;99059.66;5102872;28;20308;-66
2022/09/20 10:09:13;;;;;;;2.92;1.58;;;;;;;15.30;66.71;99061.34;5067530;28;20038;-66
2022/09/20 10:11:57;;;;;;;2.28;1.40;;;;;;;15.24;66.43;99064.28;5102659;28;20328;-66
2022/09/20 10:14:35;;;;;;;1.95;1.35;;;;;;;15.26;67.36;99071.06;5102614;28;20124;-67
2022/09/20 10:17:24;;;;;;;2.58;1.40;;;;;;;15.23;66.89;99062.56;5102590;28;20052;-67
2022/09/20 10:20:27;;;;;;;2.65;1.80;;;;;;;15.15;67.76;99065.59;5104342;28;20031;-67
2022/09/20 10:23:05;;;;;;;2.33;1.60;;;;;;;15.14;67.06;99069.94;5106280;28;20081;-66
2022/09/20 10:25:40;;;;;;;3.58;1.77;;;;;;;15.09;67.61;99066.75;5107495;28;20024;-66
2022/09/20 10:28:28;;;;;;;2.58;1.33;;;;;;;15.01;67.33;99074.94;5106353;28;20024;-65
2022/09/20 10:31:00;;;;;;;2.67;1.80;;;;;;;14.98;68.81;99082.06;5105958;28;20069;-65
2022/09/20 10:34:02;;;;;;;2.35;1.45;;;;;;;14.82;68.41;99077.59;5088461;28;20095;-65
2022/09/20 10:36:56;;;;;;;3.65;1.80;;;;;;;14.92;69.01;99084.97;5106038;28;20055;-65
2022/09/20 10:39:27;;;;;;;3.67;2.08;;;;;;;14.93;69.80;99089.28;5105868;28;20111;-65
2022/09/20 10:45:07;;;;;;;3.65;1.60;;;;;;;14.92;69.03;99085.81;5106362;28;20039;-65
2022/09/20 10:47:44;;;;;;;4.30;1.52;;;;;;;14.58;67.79;99052.69;5092032;28;20035;-65
2022/09/20 10:50:15;;;;;;;2.80;1.42;;;;;;;14.82;67.43;99089.78;5087688;28;20036;-66
2022/09/20 10:52:48;;;;;;;1.55;1.25;;;;;;;14.92;66.72;99090.19;5106321;28;20019;-66
2022/09/20 10:55:38;;;;;;;6.45;1.60;;;;;;;14.98;67.03;99095.94;5106073;28;20285;-65
2022/09/20 10:58:18;;;;;;;2.25;1.40;;;;;;;14.98;66.71;99103.78;5105770;28;20100;-66
2022/09/20 11:00:56;;;;;;;3.50;1.55;;;;;;;15.00;66.29;99101.91;5105615;28;20027;-65
2022/09/20 11:03:43;;;;;;;2.17;1.40;;;;;;;15.06;66.22;99103.38;5105575;28;20024;-65
2022/09/20 11:06:36;;;;;;;3.47;1.55;;;;;;;15.06;65.93;99105.97;5105651;28;20031;-67
2022/09/20 11:09:06;;;;;;;1.83;1.30;;;;;;;15.09;65.49;99112.81;5087527;28;20040;-66
2022/09/20 11:11:41;;;;;;;2.45;1.92;;;;;;;14.97;65.22;99107.28;5104796;28;20028;-66
2022/09/20 11:14:32;;;;;;;5.93;1.35;;;;;;;14.91;64.55;99117.19;5105531;28;20028;-66
2022/09/20 11:17:10;;;;;;;2.20;1.20;;;;;;;14.92;65.06;99127.53;5105250;28;20090;-66
2022/09/20 11:20:06;;;;;;;3.90;1.60;;;;;;;14.95;65.02;99139.56;5105221;28;20032;-65
2022/09/20 11:22:51;;;;;;;1.52;1.25;;;;;;;15.00;65.24;99141.03;5104540;28;20035;-65
2022/09/20 11:25:38;;;;;;;4.50;1.58;;;;;;;14.80;65.89;99141.16;5103632;28;20096;-66
2022/09/20 11:28:18;;;;;;;5.32;1.60;;;;;;;14.91;65.84;99157.13;5104622;28;20044;-66
2022/09/20 11:31:12;;;;;;;1.63;1.40;;;;;;;14.94;65.75;99154.38;5104312;28;20314;-66
2022/09/20 11:33:51;;;;;;;3.08;1.48;;;;;;;14.93;66.29;99163.09;5092729;28;20039;-66
2022/09/20 11:36:38;;;;;;;4.53;1.92;;;;;;;14.71;67.46;99159.81;5102310;28;20026;-66
2022/09/20 11:39:16;;;;;;;5.35;1.67;;;;;;;14.76;68.81;99169.13;5104115;28;20016;-65
2022/09/20 11:41:42;;;;;;;3.20;1.88;;;;;;;14.73;68.82;99165.84;5104694;28;20030;-66
2022/09/20 11:44:13;;;;;;;2.80;1.60;;;;;;;14.76;68.92;99163.91;5103947;28;20016;-66
2022/09/20 11:46:46;;;;;;;;;;;;;;;14.73;69.25;99177.09;5087241;28;20019;-66
2022/09/20 11:49:23;;;;;;;5.70;2.20;;;;;;;14.63;70.24;99168.84;5086516;28;19907;-66
2022/09/20 11:51:52;;;;;;;2.90;1.98;;;;;;;14.63;70.33;99184.50;5083841;28;20066;-66
2022/09/20 11:55:02;;;;;;;4.95;2.30;;;;;;;14.60;71.23;99182.00;5104054;28;20016;-66
2022/09/20 11:57:29;;;;;;;3.58;2.10;;;;;;;14.59;70.56;99190.75;5020600;28;20040;-66
2022/09/20 11:59:59;;;;;;;2.25;1.70;;;;;;;14.57;69.82;99183.91;5092563;28;20094;-66
2022/09/20 12:02:47;;;;;;;3.33;1.67;;;;;;;14.53;69.36;99175.38;5104372;28;20035;-66
2022/09/20 12:05:32;;;;;;;2.03;1.60;;;;;;;14.71;68.53;99173.72;5104265;28;20020;-66
2022/09/20 12:08:01;;;;;;;2.30;1.80;;;;;;;14.74;68.13;99188.38;5103993;28;20035;-66
2022/09/20 12:10:32;;;;;;;2.05;1.45;;;;;;;14.85;68.22;99188.72;5086234;28;20100;-66
2022/09/20 12:13:01;;;;;;;2.55;1.50;;;;;;;14.91;68.78;99190.19;5104014;28;20051;-66
2022/09/20 12:16:11;;;;;;;1.52;1.40;;;;;;;14.97;67.96;99195.94;5103722;28;20032;-66
2022/09/20 12:18:57;;;;;;;1.90;1.58;;;;;;;14.87;67.55;99199.91;5078761;28;20118;-67
2022/09/20 12:21:22;;;;;;;5.03;1.52;;;;;;;14.91;67.79;99201.47;5085570;28;20051;-67
2022/09/20 12:23:51;;;;;;;2.33;1.83;;;;;;;14.87;67.13;99204.28;5103914;28;20024;-66
2022/09/20 12:26:19;;;;;;;6.82;2.33;;;;;;;14.97;67.63;99208.97;5104037;28;20047;-66
2022/09/20 12:28:51;;;;;;;2.03;1.80;;;;;;;14.87;66.90;99212.94;5085789;28;20112;-67
2022/09/20 12:31:30;;;;;;;3.28;2.20;;;;;;;14.87;67.55;99209.50;5103995;28;20304;-66
2022/09/20 12:34:12;;;;;;;2.97;1.85;;;;;;;14.92;67.66;99213.59;5103851;28;20034;-67
2022/09/20 12:36:39;;;;;;;6.18;1.92;;;;;;;14.87;67.92;99214.72;5102574;28;20091;-68
2022/09/20 12:39:10;;;;;;;3.00;1.70;;;;;;;14.83;67.10;99214.84;5102762;28;20024;-68